createdAt,value
2022-09-09T00:05:04.700Z,6.50
2022-09-09T00:15:04.695Z,6.30
2022-09-09T00:25:04.700Z,6.10
2022-09-09T00:35:04.706Z,6.00
2022-09-09T00:45:04.747Z,6.40
2022-09-09T00:55:04.712Z,6.90
2022-09-09T01:05:04.719Z,7.40
2022-09-09T01:15:04.716Z,6.60
2022-09-09T01:25:04.741Z,6.20
2022-09-09T01:35:04.739Z,6.40
2022-09-09T01:45:05.382Z,5.90
2022-09-09T01:55:04.734Z,5.40
2022-09-09T02:05:04.767Z,5.20
2022-09-09T02:15:04.744Z,4.90
2022-09-09T02:25:04.753Z,5.00
2022-09-09T02:35:04.766Z,4.40
2022-09-09T02:45:04.769Z,5.20
2022-09-09T02:55:04.794Z,4.90
2022-09-09T03:05:04.773Z,5.00
2022-09-09T03:15:04.761Z,5.50
2022-09-09T03:25:04.779Z,4.90
2022-09-09T03:35:04.785Z,4.40
2022-09-09T03:45:04.780Z,4.30
2022-09-09T03:55:04.820Z,4.40
2022-09-09T04:05:04.782Z,4.00
2022-09-09T04:15:04.798Z,4.80
2022-09-09T04:25:04.798Z,4.60
2022-09-09T04:35:04.799Z,4.40
2022-09-09T04:45:04.814Z,5.20
2022-09-09T04:55:04.861Z,5.00
2022-09-09T05:05:04.811Z,4.60
2022-09-09T05:15:04.814Z,4.40
2022-09-09T05:25:04.839Z,4.40
2022-09-09T05:35:04.827Z,4.80
2022-09-09T05:45:04.821Z,5.90
2022-09-09T05:55:04.873Z,4.70
2022-09-09T06:05:04.834Z,4.90
2022-09-09T06:15:04.831Z,4.10
2022-09-09T06:25:04.844Z,4.40
2022-09-09T06:35:04.848Z,4.00
2022-09-09T06:45:04.854Z,3.20
2022-09-09T06:55:04.881Z,3.20
2022-09-09T07:05:04.860Z,3.10
2022-09-09T07:15:04.850Z,3.20
2022-09-09T07:25:04.871Z,3.80
2022-09-09T07:35:04.869Z,4.60
2022-09-09T07:45:04.878Z,4.10
2022-09-09T07:55:04.912Z,3.10
2022-09-09T08:05:04.898Z,3.00
2022-09-09T08:15:04.894Z,3.90
2022-09-09T08:25:04.895Z,3.30
2022-09-09T08:35:08.201Z,3.30
2022-09-09T08:45:04.908Z,2.40
2022-09-09T08:55:04.959Z,2.70
2022-09-09T09:05:05.005Z,2.10
2022-09-09T09:15:04.910Z,2.40
2022-09-09T09:25:04.922Z,2.50
2022-09-09T09:35:04.937Z,2.30
2022-09-09T09:45:05.154Z,2.10
2022-09-09T09:55:07.733Z,2.00
2022-09-09T10:05:05.153Z,1.70
2022-09-09T10:15:04.988Z,1.90
2022-09-09T10:25:04.949Z,1.70
2022-09-09T10:35:04.955Z,1.90
2022-09-09T10:45:04.956Z,1.80
2022-09-09T10:55:05.076Z,2.00
2022-09-09T11:05:04.964Z,1.70
2022-09-09T11:15:04.968Z,1.20
2022-09-09T11:25:04.981Z,1.00
2022-09-09T11:35:04.995Z,0.90
2022-09-09T11:45:04.985Z,0.90
2022-09-09T11:55:05.172Z,1.00
2022-09-09T12:05:05.032Z,1.00
2022-09-09T12:15:04.995Z,1.60
2022-09-09T12:25:05.064Z,1.40
2022-09-09T12:35:05.007Z,1.70
2022-09-09T12:45:05.015Z,1.70
2022-09-09T12:55:05.055Z,1.60
2022-09-09T13:15:05.059Z,1.80
2022-09-09T13:25:05.035Z,2.30
2022-09-09T13:35:05.029Z,2.50
2022-09-09T13:45:05.055Z,2.20
2022-09-09T13:55:05.447Z,2.20
2022-09-09T14:05:05.072Z,2.70
2022-09-09T14:15:08.054Z,2.20
2022-09-09T14:25:05.052Z,2.30
2022-09-09T14:35:05.078Z,1.70
2022-09-09T14:45:05.067Z,1.50
2022-09-09T15:05:05.203Z,1.20
2022-09-09T15:25:10.082Z,1.50
2022-09-09T15:35:05.094Z,1.40
2022-09-09T15:45:05.123Z,1.20
2022-09-09T15:55:05.406Z,1.00
2022-09-09T16:15:05.129Z,2.30
2022-09-09T16:25:05.155Z,3.20
2022-09-09T16:45:05.131Z,1.80
2022-09-09T17:15:05.469Z,2.00
2022-09-09T17:25:10.122Z,2.10
2022-09-09T17:55:05.207Z,2.00
2022-09-09T18:05:05.306Z,2.10
2022-09-09T18:15:05.205Z,2.50
2022-09-09T18:25:05.336Z,2.40
2022-09-09T18:45:05.220Z,2.90
2022-09-09T19:35:05.263Z,4.80
2022-09-09T19:55:05.214Z,2.60
2022-09-09T20:05:05.323Z,2.70
2022-09-09T20:15:05.222Z,2.70
2022-09-09T20:25:05.268Z,2.50
2022-09-09T20:35:05.334Z,2.50
2022-09-09T20:45:05.219Z,2.70
2022-09-09T20:55:05.254Z,2.50
2022-09-09T21:05:05.239Z,2.90
2022-09-09T21:15:05.244Z,2.90
2022-09-09T21:25:05.289Z,2.90
2022-09-09T21:35:05.256Z,3.20
2022-09-09T21:45:05.250Z,3.20
2022-09-09T21:55:05.241Z,2.70
2022-09-09T22:05:05.252Z,3.40
2022-09-09T22:15:05.265Z,2.40
2022-09-09T22:25:05.328Z,2.30
2022-09-09T22:35:05.268Z,1.60
2022-09-09T22:45:05.271Z,1.60
2022-09-09T22:55:05.284Z,1.50
2022-09-09T23:05:05.277Z,1.50
2022-09-09T23:15:05.286Z,1.80
2022-09-09T23:25:05.319Z,2.20
2022-09-09T23:35:05.296Z,3.60
2022-09-09T23:45:05.287Z,2.60
2022-09-09T23:55:05.294Z,2.70
